»·PEaware :: N189DR KSNA-KSDM

N189DR :: KSNA-KSDM

FLIGHT INFORMATION

Flight Status: Arrived
Operator: Privately registered:
United States
More flights under this callsign
Pilot: Justin R. (12299)
Aircraft: BEECH AIRCRAFT BONANZA
(BE36)
More flights by this aircraft type
Origin: KSNA John Wayne-Orange Co
United States
Destination: KSDM Brown Mun
United States
More flights between these airports :: More routes between these airports
Route: +
File this flight plan on PilotEdge
Remarks:
Altitude:
(Current/Filed)
2,400ft
Speed:
(Current/Filed)
0kts
Departed: 08-Aug-17 09:03 PM
Arrived: 08-Aug-17 09:38 PM
Distance/Time
Traveled:
80nm/0:34
Distance/Time
To Go:
Arrived

Flight Plot

Page will automatically refresh every two minutes.

Flight plan parsing failed; only flown route is shown


Map Options




Map Legend


Flown Route
Filed Route
Departure Airport
Arrival Airport
Navaid (VOR, NDB)
Fix

Horizontal Profiles

Position Reports

Time Latitude Longitude Heading Altitude Ground
Speed
08-Aug-17 21:05 33.577464 -117.260492 154 4553ft 173kts
08-Aug-17 21:06 33.537034 -117.237405 154 4546ft 159kts
08-Aug-17 21:07 33.500177 -117.216319 154 4556ft 147kts
08-Aug-17 21:08 33.464848 -117.195309 152 4572ft 146kts
08-Aug-17 21:09 33.434484 -117.166558 119 4546ft 137kts
08-Aug-17 21:10 33.417282 -117.129324 119 4690ft 139kts
08-Aug-17 21:11 33.398642 -117.088973 118 5467ft 146kts
08-Aug-17 21:12 33.380371 -117.049184 118 6118ft 136kts
08-Aug-17 21:13 33.362535 -117.010362 118 6549ft 137kts
08-Aug-17 21:14 33.344800 -116.971659 118 6570ft 137kts
08-Aug-17 21:15 33.326944 -116.932718 118 6554ft 137kts
08-Aug-17 21:16 33.316381 -116.890089 106 6550ft 134kts
08-Aug-17 21:17 33.285887 -116.874148 171 6545ft 123kts
08-Aug-17 21:18 33.253185 -116.871712 181 6569ft 123kts
08-Aug-17 21:19 33.220547 -116.868764 177 6554ft 120kts
08-Aug-17 21:20 33.186256 -116.864222 172 6435ft 131kts
08-Aug-17 21:21 33.151536 -116.858307 169 6381ft 120kts
08-Aug-17 21:22 33.117515 -116.846747 159 5936ft 136kts
08-Aug-17 21:23 33.082842 -116.834875 165 5553ft 123kts
08-Aug-17 21:24 33.051129 -116.821550 158 5238ft 125kts
08-Aug-17 21:25 33.019098 -116.806982 161 4943ft 126kts
08-Aug-17 21:26 32.987217 -116.795556 163 4904ft 121kts
08-Aug-17 21:27 32.953510 -116.784344 164 4879ft 136kts
08-Aug-17 21:28 32.916921 -116.772118 164 4519ft 128kts
08-Aug-17 21:29 32.893813 -116.758473 151 4515ft 105kts
08-Aug-17 21:30 32.858044 -116.739853 157 4572ft 163kts
08-Aug-17 21:31 32.811925 -116.727200 179 4534ft 181kts
08-Aug-17 21:32 32.765367 -116.726562 179 4527ft 183kts
08-Aug-17 21:33 32.723095 -116.726014 179 4558ft 184kts
08-Aug-17 21:34 32.672792 -116.732486 201 4526ft 184kts
08-Aug-17 21:35 32.633669 -116.775404 260 4544ft 185kts
08-Aug-17 21:36 32.626830 -116.832594 262 4519ft 164kts
08-Aug-17 21:37 32.613536 -116.874097 231 3343ft 178kts
08-Aug-17 21:38 32.594051 -116.925289 221 2018ft 138kts
08-Aug-17 21:39 32.580792 -116.919535 192 2002ft 117kts
08-Aug-17 21:40 32.570623 -116.954560 273 1104ft 111kts
08-Aug-17 21:41 32.572706 -116.980211 273 529ft 40kts
08-Aug-17 21:42 32.572209 -116.984123 189 529ft 0kts
08-Aug-17 21:43 32.571147 -116.984276 192 529ft 17kts
08-Aug-17 21:44 32.571400 -116.989960 261 529ft 16kts
08-Aug-17 21:45 32.571047 -116.992817 358 529ft 0kts
08-Aug-17 21:46 32.571315 -116.992846 357 528ft 0kts
08-Aug-17 21:47 32.571391 -116.992841 5 528ft 0kts
08-Aug-17 21:48 32.571397 -116.992840 2 528ft 0kts
08-Aug-17 21:49 32.571397 -116.992840 2 528ft 0kts
08-Aug-17 21:50 32.571397 -116.992840 2 528ft 0kts
08-Aug-17 21:51 32.571397 -116.992840 2 528ft 0kts
08-Aug-17 21:52 32.571397 -116.992840 2 528ft 0kts
08-Aug-17 21:53 32.571397 -116.992840 2 528ft 0kts
08-Aug-17 21:54 32.571397 -116.992840 2 528ft 0kts
08-Aug-17 21:55 32.571397 -116.992840 2 528ft 0kts

Navigation Log

Ident Type
Flight plan parsing failed, navigation log unavailable